Time;durP1;ratioP1;P1;durP2;ratioP2;P2;SDS_P1;SDS_P2;PMS_P1;PMS_P2;Temp;Humidity;BMP_temperature;BMP_pressure;BME280_temperature;BME280_humidity;BME280_pressure;Samples;Min_cycle;Max_cycle;Signal;HPM_P1;HPM_P2
2023/05/15 00:01:34;;;;;;;4.53;1.73;;;18.10;72.20;;;;;;4065166;29;20392;-59
2023/05/15 00:03:56;;;;;;;2.10;1.20;;;18.10;72.00;;;;;;4078119;29;20126;-59
2023/05/15 00:06:19;;;;;;;2.85;1.48;;;18.20;71.80;;;;;;4077823;29;20070;-53
2023/05/15 00:08:41;;;;;;;3.78;1.58;;;18.20;71.70;;;;;;4077393;29;20102;-55
2023/05/15 00:11:04;;;;;;;2.35;1.50;;;18.20;71.60;;;;;;4080125;29;20047;-54
2023/05/15 00:13:26;;;;;;;3.90;1.63;;;18.20;71.60;;;;;;4080603;29;20040;-49
2023/05/15 00:15:48;;;;;;;4.80;1.67;;;18.20;72.50;;;;;;4081328;29;20090;-52
2023/05/15 00:18:11;;;;;;;3.70;1.30;;;18.30;71.60;;;;;;4066930;29;20059;-58
2023/05/15 00:20:33;;;;;;;3.22;1.40;;;18.30;71.70;;;;;;4079706;29;20059;-59
2023/05/15 00:22:57;;;;;;;3.20;1.23;;;18.30;71.70;;;;;;4081222;29;20052;-55
2023/05/15 00:25:19;;;;;;;5.25;1.50;;;18.30;71.70;;;;;;4079696;29;20480;-55
2023/05/15 00:27:42;;;;;;;2.13;1.50;;;18.30;71.70;;;;;;4077969;29;20048;-59
2023/05/15 00:30:04;;;;;;;2.17;1.40;;;18.30;72.30;;;;;;4079635;29;20040;-59
2023/05/15 00:32:27;;;;;;;1.67;1.50;;;18.30;71.70;;;;;;4068336;28;20050;-59
2023/05/15 00:34:49;;;;;;;3.13;1.55;;;18.30;71.80;;;;;;4088750;28;20035;-56
2023/05/15 00:37:11;;;;;;;2.25;1.85;;;18.40;71.90;;;;;;4079942;29;20126;-58
2023/05/15 00:39:35;;;;;;;2.15;1.50;;;18.40;71.90;;;;;;4081743;28;20389;-58
2023/05/15 00:41:59;;;;;;;2.80;1.92;;;18.40;71.80;;;;;;4065759;29;20556;-59
2023/05/15 00:44:20;;;;;;;;;;;18.50;71.80;;;;;;4088304;28;20126;-53
2023/05/15 00:46:45;;;;;;;4.07;1.80;;;18.40;71.80;;;;;;4073798;29;19910;-55
2023/05/15 00:49:12;;;;;;;;;;;18.50;71.80;;;;;;4080786;29;20071;-54
2023/05/15 00:51:35;;;;;;;3.83;1.92;;;18.50;71.80;;;;;;4048594;29;19947;-58
2023/05/15 00:53:58;;;;;;;4.55;2.05;;;18.60;71.70;;;;;;4076989;29;20039;-58
2023/05/15 00:56:21;;;;;;;2.65;2.08;;;18.60;71.50;;;;;;4079547;29;20044;-61
2023/05/15 00:58:46;;;;;;;3.08;1.98;;;18.60;71.30;;;;;;4080062;29;20114;-49
2023/05/15 01:01:08;;;;;;;3.35;1.95;;;18.60;71.40;;;;;;4078258;29;20405;-53
2023/05/15 01:03:31;;;;;;;4.72;2.05;;;18.60;71.50;;;;;;4069933;29;20120;-58
2023/05/15 01:05:54;;;;;;;4.05;2.15;;;18.70;71.40;;;;;;4075292;29;20425;-59
2023/05/15 01:08:23;;;;;;;4.88;2.15;;;18.70;71.40;;;;;;4075936;29;20099;-60
2023/05/15 01:10:50;;;;;;;3.80;2.05;;;18.70;71.90;;;;;;4076604;29;20385;-60
2023/05/15 01:13:14;;;;;;;3.47;1.90;;;18.80;71.20;;;;;;4076848;29;20045;-58
2023/05/15 01:15:37;;;;;;;3.50;2.00;;;18.80;71.30;;;;;;4071483;29;20099;-57
2023/05/15 01:18:00;;;;;;;4.25;2.10;;;18.80;71.10;;;;;;4073714;29;20035;-54
2023/05/15 01:20:24;;;;;;;6.60;2.05;;;18.90;71.40;;;;;;4076989;29;20051;-57
2023/05/15 01:23:07;;;;;;;2.63;1.77;;;18.90;71.30;;;;;;4073291;29;20063;-58
2023/05/15 01:25:56;;;;;;;5.47;2.00;;;18.90;71.40;;;;;;4076974;29;20065;-58
2023/05/15 01:28:23;;;;;;;5.68;2.13;;;18.90;71.40;;;;;;4078376;29;20099;-57
2023/05/15 01:30:49;;;;;;;3.90;2.00;;;18.90;71.30;;;;;;4073219;29;20923;-57
2023/05/15 01:33:22;;;;;;;2.88;1.85;;;19.00;71.30;;;;;;4078203;29;20083;-59
2023/05/15 01:35:55;;;;;;;2.28;1.52;;;19.00;71.30;;;;;;4077317;29;20081;-60
2023/05/15 01:39:02;;;;;;;4.82;1.90;;;19.00;71.30;;;;;;4075618;29;20373;-60
2023/05/15 01:41:40;;;;;;;4.18;1.63;;;19.10;71.10;;;;;;4059954;29;20040;-60
2023/05/15 01:44:09;;;;;;;3.28;1.40;;;19.10;71.00;;;;;;4080365;28;20114;-55
2023/05/15 01:46:35;;;;;;;2.63;1.67;;;19.10;71.40;;;;;;4079173;29;20058;-59
2023/05/15 01:49:00;;;;;;;4.88;1.73;;;19.10;71.40;;;;;;4078479;29;20130;-57
2023/05/15 01:51:24;;;;;;;3.28;1.58;;;19.20;71.30;;;;;;4077918;29;20078;-56
2023/05/15 01:53:46;;;;;;;3.88;1.98;;;19.20;71.30;;;;;;4078060;29;20040;-53
2023/05/15 01:56:11;;;;;;;2.65;1.60;;;19.20;71.20;;;;;;4075063;29;20425;-54
2023/05/15 01:58:36;;;;;;;3.58;1.50;;;19.30;71.10;;;;;;4077461;29;20032;-58
2023/05/15 02:01:00;;;;;;;4.82;1.42;;;19.30;71.00;;;;;;4078484;29;20036;-53
2023/05/15 02:03:24;;;;;;;2.97;1.60;;;19.30;71.10;;;;;;4073017;29;20039;-49
2023/05/15 02:05:47;;;;;;;2.42;1.60;;;19.30;71.00;;;;;;4078039;29;20355;-59
2023/05/15 02:08:11;;;;;;;2.28;1.52;;;19.40;71.00;;;;;;4078984;29;20134;-58
2023/05/15 02:10:35;;;;;;;6.00;2.42;;;19.40;71.00;;;;;;4078210;29;20042;-57
2023/05/15 02:12:58;;;;;;;3.50;1.67;;;19.50;71.50;;;;;;4074552;29;20062;-60
2023/05/15 02:15:21;;;;;;;3.83;2.30;;;19.50;71.30;;;;;;4078568;29;20031;-59
2023/05/15 02:17:43;;;;;;;5.68;2.28;;;19.60;71.20;;;;;;4079380;29;20040;-58
2023/05/15 02:20:07;;;;;;;4.13;2.55;;;19.60;71.20;;;;;;4077962;29;20114;-60
2023/05/15 02:22:29;;;;;;;5.00;2.70;;;19.60;71.20;;;;;;4068523;29;20124;-47
2023/05/15 02:24:52;;;;;;;4.60;2.85;;;19.70;71.70;;;;;;4079407;29;20415;-53
2023/05/15 02:27:32;;;;;;;7.47;3.40;;;19.70;70.80;;;;;;4079090;29;20043;-51
2023/05/15 02:30:12;;;;;;;7.18;3.03;;;19.70;70.90;;;;;;4079249;29;20524;-57
2023/05/15 02:32:48;;;;;;;4.82;2.85;;;19.70;71.00;;;;;;4077971;29;20134;-54
2023/05/15 02:35:35;;;;;;;5.85;2.90;;;19.70;71.00;;;;;;4078295;28;20040;-58
2023/05/15 02:38:00;;;;;;;3.67;2.40;;;19.70;70.70;;;;;;4076860;29;20040;-55
2023/05/15 02:40:25;;;;;;;3.42;2.20;;;19.80;70.80;;;;;;4065641;28;20059;-60
2023/05/15 02:42:48;;;;;;;3.67;2.63;;;19.80;70.80;;;;;;4077824;29;20467;-59
2023/05/15 02:45:12;;;;;;;4.00;2.55;;;19.80;70.80;;;;;;4079306;29;20471;-55
2023/05/15 02:47:35;;;;;;;7.75;2.33;;;19.90;70.80;;;;;;4076397;29;20434;-53
2023/05/15 02:49:58;;;;;;;5.22;2.20;;;19.90;70.80;;;;;;4075268;29;20044;-50
2023/05/15 02:52:23;;;;;;;2.95;1.95;;;19.90;70.80;;;;;;4075608;29;20040;-54
2023/05/15 02:54:45;;;;;;;3.95;1.80;;;19.90;70.80;;;;;;4077786;29;20535;-48
2023/05/15 02:57:08;;;;;;;3.95;2.20;;;20.00;70.80;;;;;;4077278;29;20039;-56
2023/05/15 02:59:30;;;;;;;4.28;2.20;;;19.90;70.60;;;;;;4079811;28;20039;-48
2023/05/15 03:01:52;;;;;;;4.40;2.15;;;20.00;70.70;;;;;;4076740;29;20043;-54
2023/05/15 03:04:15;;;;;;;9.82;2.22;;;20.00;70.80;;;;;;4073223;29;20039;-49
2023/05/15 03:06:37;;;;;;;5.35;2.47;;;20.10;70.60;;;;;;4078127;29;20492;-51
2023/05/15 03:09:00;;;;;;;6.13;2.10;;;20.10;71.00;;;;;;4077650;29;20422;-51
2023/05/15 03:11:22;;;;;;;3.58;2.20;;;20.20;71.20;;;;;;4079540;29;20035;-49
2023/05/15 03:13:44;;;;;;;3.03;1.65;;;20.30;71.20;;;;;;4064792;29;20427;-52
2023/05/15 03:16:07;;;;;;;2.58;1.90;;;20.30;70.90;;;;;;4069297;29;20067;-51
2023/05/15 03:18:29;;;;;;;3.80;1.95;;;20.40;71.00;;;;;;4077533;29;20040;-53
2023/05/15 03:20:52;;;;;;;3.15;1.58;;;20.40;70.90;;;;;;4078461;29;20083;-48
2023/05/15 03:23:15;;;;;;;4.30;1.85;;;20.40;71.00;;;;;;4082197;29;20055;-47
2023/05/15 03:25:37;;;;;;;6.03;2.17;;;20.40;71.00;;;;;;4081882;29;20055;-50
2023/05/15 03:28:00;;;;;;;3.65;1.60;;;20.40;71.00;;;;;;4067064;29;20488;-51
2023/05/15 03:30:22;;;;;;;3.30;1.63;;;20.40;71.00;;;;;;4082697;29;20048;-52
2023/05/15 03:32:44;;;;;;;3.15;1.80;;;20.40;71.00;;;;;;4078381;29;20047;-47
2023/05/15 03:35:07;;;;;;;2.92;1.60;;;20.40;70.90;;;;;;4078434;29;20040;-52
2023/05/15 03:37:30;;;;;;;4.10;1.70;;;20.40;70.90;;;;;;4086277;29;20047;-54
2023/05/15 03:39:52;;;;;;;4.05;1.60;;;20.40;70.80;;;;;;4080646;29;20059;-50
2023/05/15 03:42:21;;;;;;;4.82;1.55;;;20.50;70.70;;;;;;4080241;29;20415;-54
2023/05/15 03:44:43;;;;;;;4.63;2.28;;;20.50;70.70;;;;;;4085781;29;20158;-50
2023/05/15 03:47:06;;;;;;;2.85;1.73;;;20.50;70.80;;;;;;4082982;29;20043;-47
2023/05/15 03:49:28;;;;;;;3.25;1.50;;;20.60;70.70;;;;;;4080280;29;20047;-54
2023/05/15 03:51:51;;;;;;;4.72;1.67;;;20.60;70.70;;;;;;4081793;29;20090;-52
2023/05/15 03:54:14;;;;;;;4.40;1.58;;;20.70;70.50;;;;;;4081600;29;20551;-46
2023/05/15 03:56:36;;;;;;;4.97;1.42;;;20.80;70.40;;;;;;4081979;28;20035;-50
2023/05/15 03:58:59;;;;;;;3.42;1.48;;;20.80;70.40;;;;;;4075548;29;20065;-56
2023/05/15 04:01:21;;;;;;;2.72;1.27;;;20.80;70.40;;;;;;4080872;29;20074;-57
2023/05/15 04:03:43;;;;;;;3.88;1.20;;;20.80;70.20;;;;;;4081101;29;20436;-58
2023/05/15 04:06:06;;;;;;;3.03;1.30;;;20.80;70.10;;;;;;4080985;29;20039;-51
2023/05/15 04:08:28;;;;;;;4.03;1.30;;;20.80;70.00;;;;;;4079535;29;20054;-57
2023/05/15 04:10:51;;;;;;;2.38;1.20;;;20.80;70.10;;;;;;4080129;29;20098;-54
2023/05/15 04:13:13;;;;;;;1.52;1.02;;;20.90;70.30;;;;;;4077724;29;20027;-53
2023/05/15 04:15:36;;;;;;;2.33;1.13;;;20.90;70.10;;;;;;4080191;29;20525;-58
2023/05/15 04:17:58;;;;;;;2.25;0.93;;;21.00;70.00;;;;;;4080753;29;20151;-49
2023/05/15 04:20:23;;;;;;;2.90;1.25;;;21.00;69.90;;;;;;4080750;29;20520;-56
2023/05/15 04:22:46;;;;;;;2.22;1.00;;;21.10;69.90;;;;;;4079685;29;20488;-51
2023/05/15 04:25:10;;;;;;;2.45;1.00;;;21.10;69.30;;;;;;4081053;29;20044;-49
2023/05/15 04:27:32;;;;;;;2.10;0.95;;;21.20;69.70;;;;;;4079941;29;20044;-53
2023/05/15 04:29:55;;;;;;;2.83;1.10;;;21.30;69.40;;;;;;4067628;29;20068;-52
2023/05/15 04:32:17;;;;;;;2.55;1.00;;;21.30;69.30;;;;;;4079079;28;20658;-50
2023/05/15 04:34:40;;;;;;;2.90;1.08;;;21.40;69.20;;;;;;4085433;28;20114;-50
2023/05/15 04:37:03;;;;;;;2.85;0.90;;;21.50;69.10;;;;;;4075776;29;20067;-58
2023/05/15 04:39:25;;;;;;;2.20;1.10;;;21.50;69.00;;;;;;4079238;29;20099;-49
2023/05/15 04:41:48;;;;;;;1.48;1.35;;;21.60;68.80;;;;;;4068725;29;20045;-64
2023/05/15 04:44:10;;;;;;;2.83;1.10;;;21.70;68.70;;;;;;4086771;29;20039;-69
2023/05/15 04:46:33;;;;;;;3.40;1.00;;;21.80;68.40;;;;;;4080024;29;20492;-68
2023/05/15 04:48:56;;;;;;;2.03;1.00;;;21.80;68.20;;;;;;4079244;29;20087;-63
2023/05/15 04:51:18;;;;;;;3.33;1.10;;;21.90;68.10;;;;;;4070734;29;20032;-65
2023/05/15 04:53:40;;;;;;;1.67;0.95;;;22.00;68.00;;;;;;4079250;29;20491;-64
2023/05/15 04:56:03;;;;;;;2.50;0.85;;;22.00;67.80;;;;;;4079287;29;20693;-65
2023/05/15 04:58:25;;;;;;;1.48;0.80;;;22.10;67.80;;;;;;4076844;29;20046;-65
2023/05/15 05:00:48;;;;;;;2.53;0.88;;;22.10;67.60;;;;;;4076245;29;20436;-62
2023/05/15 05:03:10;;;;;;;1.65;0.90;;;22.20;67.40;;;;;;4078954;29;20497;-64
2023/05/15 05:05:33;;;;;;;3.30;0.88;;;22.30;67.20;;;;;;4078916;29;20050;-65
2023/05/15 05:07:55;;;;;;;1.20;0.70;;;22.30;67.20;;;;;;4078988;29;20046;-65
2023/05/15 05:10:18;;;;;;;1.00;0.70;;;22.40;67.20;;;;;;4078856;29;20040;-65
2023/05/15 05:12:40;;;;;;;1.25;0.70;;;22.50;67.20;;;;;;4078096;29;20045;-67
2023/05/15 05:15:03;;;;;;;2.25;0.70;;;22.50;67.00;;;;;;4078240;29;20031;-60
2023/05/15 05:17:25;;;;;;;0.85;0.60;;;22.60;66.90;;;;;;4079372;29;20044;-63
2023/05/15 05:19:48;;;;;;;0.80;0.60;;;22.70;66.70;;;;;;4080994;29;20078;-70
2023/05/15 05:22:11;;;;;;;2.83;0.63;;;22.70;66.60;;;;;;4079675;29;20052;-66
2023/05/15 05:24:37;;;;;;;2.33;0.60;;;22.80;66.50;;;;;;4076221;29;20054;-66
2023/05/15 05:26:59;;;;;;;1.60;0.40;;;22.80;66.40;;;;;;4066213;29;20040;-66
2023/05/15 05:29:21;;;;;;;0.98;0.50;;;22.80;66.20;;;;;;4076032;29;20526;-66
2023/05/15 05:31:46;;;;;;;2.05;0.85;;;22.80;66.20;;;;;;4073139;29;20126;-67
2023/05/15 05:34:08;;;;;;;0.68;0.43;;;22.90;66.30;;;;;;4063371;29;20036;-69
2023/05/15 05:36:31;;;;;;;0.88;0.50;;;22.90;66.30;;;;;;4081465;28;20501;-68
2023/05/15 05:38:54;;;;;;;2.03;0.65;;;22.90;66.20;;;;;;4078436;29;20040;-73
2023/05/15 05:41:17;;;;;;;1.27;0.55;;;22.90;66.20;;;;;;4077105;29;20603;-69
2023/05/15 05:43:39;;;;;;;0.85;0.60;;;22.90;66.20;;;;;;4080411;28;20031;-61
2023/05/15 05:46:02;;;;;;;2.80;0.63;;;22.80;66.10;;;;;;4078678;29;20067;-66
2023/05/15 05:48:25;;;;;;;1.67;0.95;;;22.80;66.20;;;;;;4078822;29;20102;-69
2023/05/15 05:50:47;;;;;;;0.88;0.70;;;22.80;66.20;;;;;;4076275;29;20464;-67
2023/05/15 05:53:10;;;;;;;6.32;1.30;;;22.80;66.30;;;;;;4083810;29;20086;-60
2023/05/15 05:55:32;;;;;;;2.58;1.00;;;22.80;66.60;;;;;;4078736;28;20047;-66
2023/05/15 05:57:55;;;;;;;2.60;1.20;;;22.70;67.20;;;;;;4069570;29;20069;-62
2023/05/15 06:00:18;;;;;;;6.50;1.55;;;22.70;66.70;;;;;;4077976;29;20091;-68
2023/05/15 06:02:41;;;;;;;3.13;1.50;;;22.70;66.70;;;;;;4080730;28;20044;-70
2023/05/15 06:05:04;;;;;;;6.18;1.95;;;22.70;67.00;;;;;;4078978;29;20035;-65
2023/05/15 06:07:27;;;;;;;4.18;2.53;;;22.70;67.00;;;;;;4078130;29;20043;-67
2023/05/15 06:09:49;;;;;;;6.25;2.58;;;22.60;67.00;;;;;;4073026;29;20048;-76
2023/05/15 06:12:12;;;;;;;5.22;2.40;;;22.60;67.00;;;;;;4079413;29;20055;-75
2023/05/15 06:14:34;;;;;;;13.15;2.30;;;22.60;67.70;;;;;;4064912;29;20051;-68
2023/05/15 06:16:57;;;;;;;3.03;1.95;;;22.60;67.30;;;;;;4079390;29;20098;-73
2023/05/15 06:19:20;;;;;;;3.63;1.80;;;22.60;67.40;;;;;;4076119;29;20187;-75
2023/05/15 06:21:43;;;;;;;2.72;1.80;;;22.50;67.50;;;;;;4077483;29;20047;-72
2023/05/15 06:24:05;;;;;;;3.88;1.75;;;22.60;67.60;;;;;;4076777;29;20127;-72
2023/05/15 06:26:28;;;;;;;4.00;1.60;;;22.60;67.40;;;;;;4079015;29;20032;-70
2023/05/15 06:28:53;;;;;;;6.10;1.60;;;22.60;67.40;;;;;;4079386;29;20052;-69
2023/05/15 06:31:16;;;;;;;3.30;1.55;;;22.70;67.40;;;;;;4070199;29;20035;-70
2023/05/15 06:33:44;;;;;;;1.90;1.33;;;23.00;66.80;;;;;;4079522;28;20096;-73
2023/05/15 06:36:07;;;;;;;2.72;1.25;;;23.30;65.90;;;;;;4081926;28;20047;-66
2023/05/15 06:38:32;;;;;;;3.08;1.70;;;23.80;64.70;;;;;;4079890;29;20047;-66
2023/05/15 06:40:55;;;;;;;5.40;2.13;;;24.10;63.10;;;;;;4077295;29;20036;-73
2023/05/15 06:43:17;;;;;;;2.95;1.35;;;24.00;63.30;;;;;;4080349;28;20082;-64
2023/05/15 06:45:39;;;;;;;3.50;1.35;;;23.80;63.50;;;;;;4078578;29;20039;-64
2023/05/15 06:48:02;;;;;;;3.50;1.30;;;23.60;64.40;;;;;;4077820;29;20057;-64
2023/05/15 06:50:25;;;;;;;1.95;1.30;;;23.30;64.90;;;;;;4074787;29;20050;-66
2023/05/15 06:52:47;;;;;;;1.92;1.20;;;23.10;65.50;;;;;;4076025;29;20297;-65
2023/05/15 06:55:10;;;;;;;3.25;1.42;;;23.00;66.10;;;;;;4074983;29;20126;-70
2023/05/15 06:57:33;;;;;;;5.47;1.50;;;22.80;66.30;;;;;;4079916;29;20040;-77
2023/05/15 06:59:56;;;;;;;3.83;1.23;;;22.80;66.70;;;;;;4079484;29;20044;-77
2023/05/15 07:02:21;;;;;;;2.97;0.98;;;22.70;67.00;;;;;;4080237;29;20040;-70
2023/05/15 07:04:44;;;;;;;3.67;0.93;;;22.60;67.20;;;;;;4076718;29;20078;-70
2023/05/15 07:07:06;;;;;;;2.53;1.33;;;22.60;67.00;;;;;;4080860;28;20511;-71
2023/05/15 07:09:29;;;;;;;3.53;1.13;;;22.50;67.00;;;;;;4078974;29;20936;-64
2023/05/15 07:11:55;;;;;;;7.10;2.60;;;22.50;66.60;;;;;;4077544;29;20043;-64
2023/05/15 07:14:17;;;;;;;4.60;1.45;;;22.40;66.30;;;;;;4080229;29;20081;-64
2023/05/15 07:16:44;;;;;;;3.65;1.35;;;22.40;66.20;;;;;;4075775;29;20036;-63
2023/05/15 07:19:07;;;;;;;3.53;1.50;;;22.30;66.60;;;;;;4066999;29;20147;-58
2023/05/15 07:21:30;;;;;;;2.38;1.02;;;22.30;67.10;;;;;;4076796;29;20035;-65
2023/05/15 07:23:52;;;;;;;3.05;0.80;;;22.30;67.50;;;;;;4079250;28;20086;-65
2023/05/15 07:26:15;;;;;;;2.75;1.10;;;22.30;67.70;;;;;;4077826;29;20587;-62
2023/05/15 07:28:37;;;;;;;2.78;1.25;;;22.30;67.30;;;;;;4080558;29;20044;-63
2023/05/15 07:30:59;;;;;;;2.30;1.08;;;22.20;67.10;;;;;;4074937;29;20059;-69
2023/05/15 07:33:22;;;;;;;1.38;0.90;;;22.20;66.90;;;;;;4076892;29;20097;-65
2023/05/15 07:35:44;;;;;;;1.90;0.80;;;22.20;66.90;;;;;;4074157;28;20058;-68
2023/05/15 07:38:07;;;;;;;2.88;1.42;;;22.20;66.80;;;;;;4076037;29;20067;-61
2023/05/15 07:40:30;;;;;;;3.90;1.10;;;22.20;66.90;;;;;;4076655;29;20044;-67
2023/05/15 07:42:53;;;;;;;1.45;1.00;;;22.10;66.80;;;;;;4076140;29;20436;-62
2023/05/15 07:45:15;;;;;;;2.45;1.15;;;22.10;66.90;;;;;;4081263;28;20078;-65
2023/05/15 07:47:37;;;;;;;1.85;0.80;;;22.10;67.00;;;;;;4075839;29;20083;-63
2023/05/15 07:50:00;;;;;;;1.38;1.15;;;22.00;67.00;;;;;;4077272;29;20063;-61
2023/05/15 07:52:22;;;;;;;1.77;1.00;;;22.00;67.10;;;;;;4075564;29;20042;-61
2023/05/15 07:54:44;;;;;;;2.03;0.95;;;22.00;67.10;;;;;;4077989;29;20042;-62
2023/05/15 07:57:08;;;;;;;1.92;1.00;;;22.00;67.20;;;;;;4078186;29;20036;-57
2023/05/15 07:59:30;;;;;;;1.40;0.95;;;22.00;67.20;;;;;;4079811;29;20046;-64
2023/05/15 08:01:53;;;;;;;5.80;1.20;;;22.00;67.40;;;;;;4075961;29;20079;-60
2023/05/15 08:04:15;;;;;;;2.17;1.10;;;21.90;67.20;;;;;;4075642;29;20043;-65
2023/05/15 08:06:38;;;;;;;1.48;0.95;;;21.90;67.30;;;;;;4081795;29;20404;-65
2023/05/15 08:09:00;;;;;;;3.45;1.23;;;21.90;67.40;;;;;;4084456;28;20063;-65
2023/05/15 08:11:23;;;;;;;1.05;0.80;;;21.80;67.40;;;;;;4084644;29;20028;-64
2023/05/15 08:13:45;;;;;;;3.72;0.90;;;21.80;67.50;;;;;;4083168;29;20051;-65
2023/05/15 08:16:08;;;;;;;0.93;0.50;;;21.70;67.50;;;;;;4083620;29;20035;-65
2023/05/15 08:18:30;;;;;;;0.85;0.70;;;21.70;67.60;;;;;;4081814;29;20036;-66
2023/05/15 08:20:53;;;;;;;1.38;0.90;;;21.70;67.60;;;;;;4080848;29;20040;-65
2023/05/15 08:23:15;;;;;;;0.50;0.40;;;21.60;67.60;;;;;;4083493;29;20059;-64
2023/05/15 08:25:37;;;;;;;2.25;0.85;;;21.60;67.70;;;;;;4081931;29;20050;-64
2023/05/15 08:28:01;;;;;;;1.08;0.68;;;21.60;67.90;;;;;;4081344;29;20039;-63
2023/05/15 08:30:23;;;;;;;1.67;1.00;;;21.60;67.90;;;;;;4080983;29;20343;-73
2023/05/15 08:32:47;;;;;;;0.85;0.70;;;21.60;68.00;;;;;;4060325;29;20156;-67
2023/05/15 08:35:10;;;;;;;2.08;0.70;;;21.60;68.00;;;;;;4073613;29;21335;-69
2023/05/15 08:37:32;;;;;;;2.90;0.77;;;21.50;68.00;;;;;;4075543;29;20078;-68
2023/05/15 08:39:55;;;;;;;1.02;0.60;;;21.50;68.00;;;;;;4077164;29;20031;-67
2023/05/15 08:42:46;;;;;;;1.95;0.65;;;21.50;68.10;;;;;;4080850;29;20113;-60
2023/05/15 08:45:09;;;;;;;2.65;0.82;;;21.50;68.20;;;;;;4065490;29;20074;-56
2023/05/15 08:47:35;;;;;;;1.85;1.23;;;21.50;69.20;;;;;;4080655;28;20043;-53
2023/05/15 08:50:13;;;;;;;0.75;0.57;;;21.40;68.80;;;;;;4080383;29;20280;-52
2023/05/15 08:52:35;;;;;;;0.85;0.80;;;21.40;68.90;;;;;;4077847;29;20439;-53
2023/05/15 08:54:59;;;;;;;1.33;0.80;;;21.50;69.10;;;;;;4078931;29;20091;-55
2023/05/15 08:57:21;;;;;;;;;;;21.50;69.20;;;;;;4079938;29;20041;-54
2023/05/15 08:59:45;;;;;;;1.35;0.80;;;21.50;69.20;;;;;;4075284;29;20303;-57
2023/05/15 09:02:07;;;;;;;0.80;0.60;;;21.50;69.20;;;;;;4079379;29;20104;-60
2023/05/15 09:04:30;;;;;;;1.23;0.90;;;21.50;68.80;;;;;;4080740;28;20429;-58
2023/05/15 09:06:54;;;;;;;1.48;0.90;;;21.50;69.20;;;;;;4075761;28;20038;-57
2023/05/15 09:09:17;;;;;;;;;;;21.50;69.20;;;;;;4074286;29;20063;-63
2023/05/15 09:11:44;;;;;;;1.42;0.70;;;21.50;69.20;;;;;;4078446;29;20509;-60
2023/05/15 09:14:08;;;;;;;1.50;0.70;;;21.50;69.20;;;;;;4076238;29;20080;-60
2023/05/15 09:16:33;;;;;;;1.48;0.50;;;21.50;69.20;;;;;;4076034;29;20547;-59
2023/05/15 09:18:57;;;;;;;1.92;0.65;;;21.50;69.20;;;;;;4079620;29;20504;-54
2023/05/15 09:21:33;;;;;;;1.27;0.60;;;21.50;69.20;;;;;;4074846;29;20371;-60
2023/05/15 09:24:28;;;;;;;1.50;0.90;;;21.50;69.30;;;;;;4078745;29;20421;-59
2023/05/15 09:27:07;;;;;;;0.65;0.60;;;21.50;69.20;;;;;;4059458;29;20046;-62
2023/05/15 09:29:31;;;;;;;1.65;0.90;;;21.50;69.20;;;;;;4080680;29;20055;-61
2023/05/15 09:31:54;;;;;;;3.90;1.08;;;21.50;69.20;;;;;;4079702;29;20071;-59
2023/05/15 09:34:17;;;;;;;2.08;0.88;;;21.50;69.20;;;;;;4073712;29;20423;-52
2023/05/15 09:36:43;;;;;;;1.05;0.70;;;21.50;69.20;;;;;;4079030;29;20051;-58
2023/05/15 09:39:09;;;;;;;2.80;1.00;;;21.50;69.10;;;;;;4074525;29;20124;-51
2023/05/15 09:41:31;;;;;;;2.38;1.02;;;21.50;69.10;;;;;;4082370;28;20639;-63
2023/05/15 09:43:55;;;;;;;2.75;1.33;;;21.50;69.10;;;;;;4079311;29;20055;-61
2023/05/15 09:46:17;;;;;;;;;;;21.50;68.50;;;;;;4072582;29;20497;-59
2023/05/15 09:48:46;;;;;;;1.77;1.23;;;21.50;68.30;;;;;;4074450;29;19977;-57
2023/05/15 09:51:16;;;;;;;3.50;1.40;;;21.50;68.40;;;;;;4077352;29;20043;-58
2023/05/15 09:53:39;;;;;;;2.50;1.27;;;21.50;68.40;;;;;;4078979;29;20039;-61
2023/05/15 09:56:03;;;;;;;2.50;1.40;;;21.50;68.40;;;;;;4073954;29;20039;-58
2023/05/15 09:58:25;;;;;;;3.20;1.60;;;21.50;68.50;;;;;;4071834;29;20044;-59
2023/05/15 10:00:48;;;;;;;3.90;1.35;;;21.50;68.70;;;;;;4071204;29;20059;-56
2023/05/15 10:03:11;;;;;;;3.25;1.30;;;21.50;68.70;;;;;;4071457;29;20055;-57
2023/05/15 10:05:34;;;;;;;1.88;1.30;;;21.50;68.80;;;;;;4072321;28;20540;-56
2023/05/15 10:08:00;;;;;;;2.83;1.00;;;21.50;68.80;;;;;;4067424;29;20039;-58
2023/05/15 10:10:27;;;;;;;1.77;1.10;;;21.50;68.80;;;;;;4069598;29;20103;-58
2023/05/15 10:12:57;;;;;;;2.03;1.10;;;21.50;68.90;;;;;;4072649;29;20776;-57
2023/05/15 10:15:21;;;;;;;3.30;1.17;;;21.50;68.90;;;;;;4069997;29;20480;-58
2023/05/15 10:17:45;;;;;;;3.22;1.58;;;21.50;68.90;;;;;;4068306;29;20047;-60
2023/05/15 10:20:12;;;;;;;2.58;1.33;;;21.50;69.00;;;;;;4069178;29;20122;-59
2023/05/15 10:22:40;;;;;;;2.55;1.45;;;21.50;69.00;;;;;;4071114;29;20051;-59
2023/05/15 10:25:07;;;;;;;1.88;1.20;;;21.40;69.00;;;;;;4071294;29;20036;-58
2023/05/15 10:27:31;;;;;;;3.13;1.33;;;21.50;69.00;;;;;;4055169;29;20127;-60
2023/05/15 10:30:47;;;;;;;3.95;1.17;;;21.40;69.00;;;;;;4072422;29;20071;-61
2023/05/15 10:33:10;;;;;;;2.05;1.23;;;21.50;69.00;;;;;;4074826;29;20409;-59
2023/05/15 10:35:35;;;;;;;2.20;1.33;;;21.50;69.00;;;;;;4077511;29;20495;-57
2023/05/15 10:37:57;;;;;;;2.83;1.50;;;21.50;69.00;;;;;;4075051;29;20035;-60
2023/05/15 10:40:20;;;;;;;2.15;1.50;;;21.50;69.10;;;;;;4075994;29;20137;-57
2023/05/15 10:42:49;;;;;;;2.10;1.20;;;21.50;69.00;;;;;;4076963;29;20039;-59
2023/05/15 10:45:14;;;;;;;1.80;1.38;;;21.50;69.00;;;;;;4063242;29;20145;-60
2023/05/15 10:47:42;;;;;;;3.05;1.60;;;21.50;69.00;;;;;;4075468;29;20070;-59
2023/05/15 10:50:05;;;;;;;8.73;1.70;;;21.50;69.00;;;;;;4077216;29;20056;-52
2023/05/15 10:52:28;;;;;;;4.03;1.27;;;21.40;68.90;;;;;;4077545;29;20046;-56
2023/05/15 10:54:52;;;;;;;2.05;1.30;;;21.50;69.00;;;;;;4070768;29;20071;-55
2023/05/15 10:57:15;;;;;;;2.83;1.80;;;21.50;69.00;;;;;;4077942;29;20094;-57
2023/05/15 10:59:37;;;;;;;2.95;1.70;;;21.50;68.90;;;;;;4077109;29;20051;-55
2023/05/15 11:02:22;;;;;;;2.22;1.48;;;21.50;69.00;;;;;;4077322;29;20063;-60
2023/05/15 11:04:44;;;;;;;2.88;1.25;;;21.50;69.00;;;;;;4077734;28;20039;-60
2023/05/15 11:07:15;;;;;;;1.80;1.30;;;21.40;68.90;;;;;;4080211;29;20092;-58
2023/05/15 11:09:39;;;;;;;2.33;1.30;;;21.40;68.90;;;;;;4079194;28;20062;-59
2023/05/15 11:12:06;;;;;;;1.88;1.27;;;21.40;68.80;;;;;;4076690;29;20115;-59
2023/05/15 11:14:37;;;;;;;2.55;1.58;;;21.40;68.80;;;;;;4077915;29;20048;-65
2023/05/15 11:17:02;;;;;;;2.45;1.52;;;21.40;68.90;;;;;;4078578;28;21001;-57
2023/05/15 11:19:33;;;;;;;1.95;1.50;;;21.40;68.90;;;;;;4076021;29;20039;-48
2023/05/15 11:22:00;;;;;;;4.38;1.95;;;21.40;68.70;;;;;;4065933;29;20047;-63
2023/05/15 11:24:30;;;;;;;9.93;2.00;;;21.40;67.90;;;;;;4077519;29;20047;-47
2023/05/15 11:27:00;;;;;;;5.90;2.00;;;21.40;67.80;;;;;;4077488;29;20444;-53
2023/05/15 11:29:23;;;;;;;4.72;2.20;;;21.40;68.00;;;;;;4077963;29;20051;-49
2023/05/15 11:31:46;;;;;;;6.07;1.98;;;21.40;67.90;;;;;;4070372;29;20415;-50
2023/05/15 11:34:08;;;;;;;12.23;2.28;;;21.40;68.00;;;;;;4077381;29;20501;-46
2023/05/15 11:36:32;;;;;;;3.00;1.85;;;21.40;67.90;;;;;;4079480;28;20114;-46
2023/05/15 11:38:56;;;;;;;2.40;1.65;;;21.30;67.80;;;;;;4076450;29;20114;-45
2023/05/15 11:41:20;;;;;;;3.00;1.52;;;21.30;67.70;;;;;;4079374;29;20039;-46
2023/05/15 11:43:43;;;;;;;2.78;1.80;;;21.30;67.70;;;;;;4069804;29;20043;-47
2023/05/15 11:46:12;;;;;;;2.65;1.85;;;21.30;67.70;;;;;;4080287;29;20045;-46
2023/05/15 11:48:43;;;;;;;2.80;1.63;;;21.30;67.70;;;;;;4079065;29;20044;-48
2023/05/15 11:51:14;;;;;;;3.63;1.58;;;21.30;67.60;;;;;;4079866;29;20074;-44
2023/05/15 11:53:39;;;;;;;4.88;1.90;;;21.30;68.00;;;;;;4079021;29;20124;-45
2023/05/15 11:56:02;;;;;;;3.58;1.77;;;21.30;68.40;;;;;;4080668;29;20146;-46
2023/05/15 11:58:25;;;;;;;4.68;2.00;;;21.20;68.40;;;;;;4078630;29;20052;-44
2023/05/15 12:00:50;;;;;;;2.90;1.60;;;21.30;68.40;;;;;;4082847;28;20043;-49
2023/05/15 12:03:19;;;;;;;6.93;2.08;;;21.20;68.40;;;;;;4077425;29;20043;-45
2023/05/15 12:05:42;;;;;;;3.95;1.77;;;21.20;68.40;;;;;;4078873;29;20052;-46
2023/05/15 12:08:08;;;;;;;8.25;2.40;;;21.20;68.60;;;;;;4082900;28;20110;-46
2023/05/15 12:10:30;;;;;;;3.90;1.83;;;21.30;69.00;;;;;;4080053;29;20054;-51
2023/05/15 12:12:53;;;;;;;5.82;2.10;;;21.20;68.80;;;;;;4076518;29;20031;-47
2023/05/15 12:15:16;;;;;;;8.70;2.97;;;21.20;68.30;;;;;;4078670;29;20103;-53
2023/05/15 12:17:43;;;;;;;4.05;1.80;;;21.20;68.20;;;;;;4083770;28;20620;-47
2023/05/15 12:20:16;;;;;;;4.68;1.90;;;21.20;68.70;;;;;;4078194;28;20044;-50
2023/05/15 12:22:40;;;;;;;12.43;2.17;;;21.20;68.80;;;;;;4078316;29;20082;-46
2023/05/15 12:25:03;;;;;;;3.22;1.60;;;21.10;68.20;;;;;;4079902;29;20107;-49
2023/05/15 12:27:26;;;;;;;6.18;1.67;;;21.10;69.00;;;;;;4078955;29;20476;-48
2023/05/15 12:29:48;;;;;;;4.75;1.45;;;21.10;69.10;;;;;;4079726;29;20053;-48
2023/05/15 12:32:11;;;;;;;2.72;1.60;;;21.10;69.20;;;;;;4080533;29;20171;-47
2023/05/15 12:34:34;;;;;;;4.50;1.50;;;21.10;69.30;;;;;;4077030;29;20052;-50